sensor_id;sensor_type;location;lat;lon;timestamp;P1;durP1;ratioP1;P2;durP2;ratioP2
47860;SDS011;33620;52.340;5.984;2023-06-14T00:00:58;9.13;;;3.58;;
47860;SDS011;33620;52.340;5.984;2023-06-14T00:03:28;11.38;;;3.78;;
47860;SDS011;33620;52.340;5.984;2023-06-14T00:05:54;13.35;;;3.95;;
47860;SDS011;33620;52.340;5.984;2023-06-14T00:08:19;10.00;;;3.67;;
47860;SDS011;33620;52.340;5.984;2023-06-14T00:10:46;9.43;;;3.70;;
47860;SDS011;33620;52.340;5.984;2023-06-14T00:13:11;11.48;;;3.50;;
47860;SDS011;33620;52.340;5.984;2023-06-14T00:15:37;12.82;;;3.78;;
47860;SDS011;33620;52.340;5.984;2023-06-14T00:18:03;9.25;;;3.42;;
47860;SDS011;33620;52.340;5.984;2023-06-14T00:20:30;11.85;;;4.25;;
47860;SDS011;33620;52.340;5.984;2023-06-14T00:22:57;14.10;;;3.72;;
47860;SDS011;33620;52.340;5.984;2023-06-14T00:25:23;7.88;;;3.25;;
47860;SDS011;33620;52.340;5.984;2023-06-14T00:27:53;8.13;;;3.17;;
47860;SDS011;33620;52.340;5.984;2023-06-14T00:30:19;8.80;;;3.47;;
47860;SDS011;33620;52.340;5.984;2023-06-14T00:32:45;8.65;;;3.38;;
47860;SDS011;33620;52.340;5.984;2023-06-14T00:35:11;11.63;;;3.42;;
47860;SDS011;33620;52.340;5.984;2023-06-14T00:37:37;14.18;;;3.70;;
47860;SDS011;33620;52.340;5.984;2023-06-14T00:40:03;9.23;;;3.47;;
47860;SDS011;33620;52.340;5.984;2023-06-14T00:42:29;8.68;;;3.80;;
47860;SDS011;33620;52.340;5.984;2023-06-14T00:44:55;8.32;;;3.55;;
47860;SDS011;33620;52.340;5.984;2023-06-14T00:47:21;9.63;;;3.50;;
47860;SDS011;33620;52.340;5.984;2023-06-14T00:49:47;10.10;;;3.80;;
47860;SDS011;33620;52.340;5.984;2023-06-14T00:52:13;7.47;;;3.58;;
47860;SDS011;33620;52.340;5.984;2023-06-14T00:54:40;7.20;;;3.40;;
47860;SDS011;33620;52.340;5.984;2023-06-14T00:57:09;10.55;;;3.90;;
47860;SDS011;33620;52.340;5.984;2023-06-14T00:59:46;6.18;;;3.20;;
47860;SDS011;33620;52.340;5.984;2023-06-14T01:02:14;9.57;;;3.70;;
47860;SDS011;33620;52.340;5.984;2023-06-14T01:04:40;10.40;;;3.55;;
47860;SDS011;33620;52.340;5.984;2023-06-14T01:09:53;9.07;;;3.50;;
47860;SDS011;33620;52.340;5.984;2023-06-14T01:15:23;12.38;;;3.72;;
47860;SDS011;33620;52.340;5.984;2023-06-14T01:17:50;8.02;;;3.88;;
47860;SDS011;33620;52.340;5.984;2023-06-14T01:20:16;12.80;;;3.97;;
47860;SDS011;33620;52.340;5.984;2023-06-14T01:22:51;9.88;;;3.70;;
47860;SDS011;33620;52.340;5.984;2023-06-14T01:25:21;7.45;;;3.28;;
47860;SDS011;33620;52.340;5.984;2023-06-14T01:27:48;11.85;;;3.97;;
47860;SDS011;33620;52.340;5.984;2023-06-14T01:30:15;9.13;;;3.97;;
47860;SDS011;33620;52.340;5.984;2023-06-14T01:32:42;8.13;;;3.75;;
47860;SDS011;33620;52.340;5.984;2023-06-14T01:35:09;8.70;;;3.55;;
47860;SDS011;33620;52.340;5.984;2023-06-14T01:37:35;7.45;;;3.17;;
47860;SDS011;33620;52.340;5.984;2023-06-14T01:40:02;13.30;;;3.60;;
47860;SDS011;33620;52.340;5.984;2023-06-14T01:42:31;9.48;;;3.10;;
47860;SDS011;33620;52.340;5.984;2023-06-14T01:45:00;11.82;;;3.60;;
47860;SDS011;33620;52.340;5.984;2023-06-14T01:47:26;10.07;;;3.40;;
47860;SDS011;33620;52.340;5.984;2023-06-14T01:49:52;12.45;;;3.83;;
47860;SDS011;33620;52.340;5.984;2023-06-14T01:52:17;10.52;;;3.53;;
47860;SDS011;33620;52.340;5.984;2023-06-14T01:54:44;13.65;;;4.55;;
47860;SDS011;33620;52.340;5.984;2023-06-14T01:57:11;8.70;;;3.63;;
47860;SDS011;33620;52.340;5.984;2023-06-14T01:59:36;11.73;;;3.28;;
47860;SDS011;33620;52.340;5.984;2023-06-14T02:02:02;9.38;;;3.42;;
47860;SDS011;33620;52.340;5.984;2023-06-14T02:04:28;9.73;;;4.10;;
47860;SDS011;33620;52.340;5.984;2023-06-14T02:06:53;13.13;;;4.00;;
47860;SDS011;33620;52.340;5.984;2023-06-14T02:09:19;8.13;;;3.78;;
47860;SDS011;33620;52.340;5.984;2023-06-14T02:11:44;10.90;;;3.40;;
47860;SDS011;33620;52.340;5.984;2023-06-14T02:14:10;8.68;;;3.83;;
47860;SDS011;33620;52.340;5.984;2023-06-14T02:16:36;11.95;;;3.63;;
47860;SDS011;33620;52.340;5.984;2023-06-14T02:19:03;6.50;;;3.17;;
47860;SDS011;33620;52.340;5.984;2023-06-14T02:21:29;11.63;;;4.00;;
47860;SDS011;33620;52.340;5.984;2023-06-14T02:23:55;7.38;;;2.92;;
47860;SDS011;33620;52.340;5.984;2023-06-14T02:26:20;12.82;;;3.53;;
47860;SDS011;33620;52.340;5.984;2023-06-14T02:28:47;7.85;;;3.63;;
47860;SDS011;33620;52.340;5.984;2023-06-14T02:31:13;7.93;;;3.10;;
47860;SDS011;33620;52.340;5.984;2023-06-14T02:33:38;11.52;;;3.65;;
47860;SDS011;33620;52.340;5.984;2023-06-14T02:36:04;6.30;;;3.45;;
47860;SDS011;33620;52.340;5.984;2023-06-14T02:38:30;7.40;;;3.50;;
47860;SDS011;33620;52.340;5.984;2023-06-14T02:40:55;10.73;;;4.13;;
47860;SDS011;33620;52.340;5.984;2023-06-14T02:43:21;8.98;;;3.67;;
47860;SDS011;33620;52.340;5.984;2023-06-14T02:45:46;9.20;;;3.67;;
47860;SDS011;33620;52.340;5.984;2023-06-14T02:48:11;9.55;;;3.85;;
47860;SDS011;33620;52.340;5.984;2023-06-14T02:50:37;11.68;;;4.15;;
47860;SDS011;33620;52.340;5.984;2023-06-14T02:53:02;10.27;;;3.80;;
47860;SDS011;33620;52.340;5.984;2023-06-14T02:55:28;11.93;;;3.70;;
47860;SDS011;33620;52.340;5.984;2023-06-14T02:57:54;11.20;;;3.85;;
47860;SDS011;33620;52.340;5.984;2023-06-14T03:00:19;12.82;;;3.80;;
47860;SDS011;33620;52.340;5.984;2023-06-14T03:02:45;7.18;;;3.47;;
47860;SDS011;33620;52.340;5.984;2023-06-14T03:05:10;8.35;;;3.60;;
47860;SDS011;33620;52.340;5.984;2023-06-14T03:07:36;9.23;;;3.35;;
47860;SDS011;33620;52.340;5.984;2023-06-14T03:10:06;8.75;;;3.70;;
47860;SDS011;33620;52.340;5.984;2023-06-14T03:12:35;9.57;;;3.53;;
47860;SDS011;33620;52.340;5.984;2023-06-14T03:15:01;10.65;;;3.47;;
47860;SDS011;33620;52.340;5.984;2023-06-14T03:17:27;10.88;;;3.72;;
47860;SDS011;33620;52.340;5.984;2023-06-14T03:19:54;7.68;;;3.38;;
47860;SDS011;33620;52.340;5.984;2023-06-14T03:22:20;8.13;;;3.80;;
47860;SDS011;33620;52.340;5.984;2023-06-14T03:24:46;10.65;;;3.70;;
47860;SDS011;33620;52.340;5.984;2023-06-14T03:27:13;11.43;;;3.58;;
47860;SDS011;33620;52.340;5.984;2023-06-14T03:29:39;8.93;;;3.85;;
47860;SDS011;33620;52.340;5.984;2023-06-14T03:32:05;8.27;;;3.75;;
47860;SDS011;33620;52.340;5.984;2023-06-14T03:34:30;8.48;;;3.55;;
47860;SDS011;33620;52.340;5.984;2023-06-14T03:36:56;9.30;;;3.63;;
47860;SDS011;33620;52.340;5.984;2023-06-14T03:39:21;11.60;;;3.47;;
47860;SDS011;33620;52.340;5.984;2023-06-14T03:41:46;14.07;;;3.92;;
47860;SDS011;33620;52.340;5.984;2023-06-14T03:44:14;8.70;;;3.80;;
47860;SDS011;33620;52.340;5.984;2023-06-14T03:46:40;9.10;;;3.50;;
47860;SDS011;33620;52.340;5.984;2023-06-14T03:49:06;12.23;;;4.10;;
47860;SDS011;33620;52.340;5.984;2023-06-14T03:51:32;8.80;;;3.65;;
47860;SDS011;33620;52.340;5.984;2023-06-14T03:54:00;10.98;;;3.95;;
47860;SDS011;33620;52.340;5.984;2023-06-14T03:56:25;10.68;;;3.75;;
47860;SDS011;33620;52.340;5.984;2023-06-14T03:58:51;10.82;;;3.83;;
47860;SDS011;33620;52.340;5.984;2023-06-14T04:01:17;9.30;;;4.05;;
47860;SDS011;33620;52.340;5.984;2023-06-14T04:03:42;9.75;;;4.10;;
47860;SDS011;33620;52.340;5.984;2023-06-14T04:06:08;8.13;;;3.53;;
47860;SDS011;33620;52.340;5.984;2023-06-14T04:08:33;9.02;;;3.47;;
47860;SDS011;33620;52.340;5.984;2023-06-14T04:10:59;10.48;;;4.10;;
47860;SDS011;33620;52.340;5.984;2023-06-14T04:13:25;6.85;;;3.60;;
47860;SDS011;33620;52.340;5.984;2023-06-14T04:15:50;10.32;;;3.47;;
47860;SDS011;33620;52.340;5.984;2023-06-14T04:18:16;7.53;;;3.63;;
47860;SDS011;33620;52.340;5.984;2023-06-14T04:20:42;9.45;;;3.58;;
47860;SDS011;33620;52.340;5.984;2023-06-14T04:23:15;6.78;;;3.85;;
47860;SDS011;33620;52.340;5.984;2023-06-14T04:25:43;7.38;;;3.15;;
47860;SDS011;33620;52.340;5.984;2023-06-14T04:28:12;9.02;;;3.80;;
47860;SDS011;33620;52.340;5.984;2023-06-14T04:30:40;12.05;;;4.00;;
47860;SDS011;33620;52.340;5.984;2023-06-14T04:33:06;8.73;;;3.50;;
47860;SDS011;33620;52.340;5.984;2023-06-14T04:35:32;6.93;;;3.38;;
47860;SDS011;33620;52.340;5.984;2023-06-14T04:37:58;7.32;;;3.47;;
47860;SDS011;33620;52.340;5.984;2023-06-14T04:40:24;9.32;;;4.30;;
47860;SDS011;33620;52.340;5.984;2023-06-14T04:42:49;6.90;;;3.63;;
47860;SDS011;33620;52.340;5.984;2023-06-14T04:45:15;7.78;;;3.35;;
47860;SDS011;33620;52.340;5.984;2023-06-14T04:47:41;8.10;;;3.75;;
47860;SDS011;33620;52.340;5.984;2023-06-14T04:50:07;9.18;;;3.80;;
47860;SDS011;33620;52.340;5.984;2023-06-14T04:52:33;7.75;;;3.75;;
47860;SDS011;33620;52.340;5.984;2023-06-14T04:55:00;9.38;;;4.07;;
47860;SDS011;33620;52.340;5.984;2023-06-14T04:57:26;9.88;;;3.78;;
47860;SDS011;33620;52.340;5.984;2023-06-14T04:59:52;7.82;;;3.58;;
47860;SDS011;33620;52.340;5.984;2023-06-14T05:02:21;10.05;;;4.15;;
47860;SDS011;33620;52.340;5.984;2023-06-14T05:04:47;11.50;;;5.13;;
47860;SDS011;33620;52.340;5.984;2023-06-14T05:07:13;11.05;;;3.88;;
47860;SDS011;33620;52.340;5.984;2023-06-14T05:09:39;5.70;;;3.65;;
47860;SDS011;33620;52.340;5.984;2023-06-14T05:12:04;10.18;;;3.90;;
47860;SDS011;33620;52.340;5.984;2023-06-14T05:14:33;7.45;;;3.90;;
47860;SDS011;33620;52.340;5.984;2023-06-14T05:16:58;11.30;;;4.05;;
47860;SDS011;33620;52.340;5.984;2023-06-14T05:19:24;10.55;;;4.05;;
47860;SDS011;33620;52.340;5.984;2023-06-14T05:21:50;7.32;;;3.80;;
47860;SDS011;33620;52.340;5.984;2023-06-14T05:24:16;8.32;;;4.45;;
47860;SDS011;33620;52.340;5.984;2023-06-14T05:26:42;10.82;;;4.60;;
47860;SDS011;33620;52.340;5.984;2023-06-14T05:29:08;9.02;;;4.28;;
47860;SDS011;33620;52.340;5.984;2023-06-14T05:31:33;9.90;;;4.30;;
47860;SDS011;33620;52.340;5.984;2023-06-14T05:33:59;10.13;;;4.20;;
47860;SDS011;33620;52.340;5.984;2023-06-14T05:36:24;11.75;;;6.40;;
47860;SDS011;33620;52.340;5.984;2023-06-14T05:38:50;10.63;;;3.60;;
47860;SDS011;33620;52.340;5.984;2023-06-14T05:41:22;9.77;;;4.32;;
47860;SDS011;33620;52.340;5.984;2023-06-14T05:43:48;7.80;;;4.85;;
47860;SDS011;33620;52.340;5.984;2023-06-14T05:46:13;8.52;;;4.28;;
47860;SDS011;33620;52.340;5.984;2023-06-14T05:48:39;9.77;;;4.28;;
47860;SDS011;33620;52.340;5.984;2023-06-14T05:51:05;10.48;;;4.28;;
47860;SDS011;33620;52.340;5.984;2023-06-14T05:53:33;10.93;;;4.00;;
47860;SDS011;33620;52.340;5.984;2023-06-14T05:55:59;10.10;;;4.07;;
47860;SDS011;33620;52.340;5.984;2023-06-14T05:58:24;9.63;;;3.97;;
47860;SDS011;33620;52.340;5.984;2023-06-14T06:00:50;10.65;;;4.47;;
47860;SDS011;33620;52.340;5.984;2023-06-14T06:03:15;14.65;;;4.18;;
47860;SDS011;33620;52.340;5.984;2023-06-14T06:05:41;10.07;;;4.18;;
47860;SDS011;33620;52.340;5.984;2023-06-14T06:08:06;8.38;;;3.78;;
47860;SDS011;33620;52.340;5.984;2023-06-14T06:10:32;9.80;;;3.95;;
47860;SDS011;33620;52.340;5.984;2023-06-14T06:12:57;11.07;;;4.18;;
47860;SDS011;33620;52.340;5.984;2023-06-14T06:15:22;10.18;;;4.15;;
47860;SDS011;33620;52.340;5.984;2023-06-14T06:17:48;5.63;;;3.58;;
47860;SDS011;33620;52.340;5.984;2023-06-14T06:20:13;11.98;;;4.43;;
47860;SDS011;33620;52.340;5.984;2023-06-14T06:22:39;7.95;;;3.55;;
47860;SDS011;33620;52.340;5.984;2023-06-14T06:25:04;12.80;;;3.95;;
47860;SDS011;33620;52.340;5.984;2023-06-14T06:27:31;8.98;;;3.80;;
47860;SDS011;33620;52.340;5.984;2023-06-14T06:29:56;7.30;;;3.63;;
47860;SDS011;33620;52.340;5.984;2023-06-14T06:32:22;10.57;;;4.28;;
47860;SDS011;33620;52.340;5.984;2023-06-14T06:34:47;7.28;;;3.50;;
47860;SDS011;33620;52.340;5.984;2023-06-14T06:37:13;9.45;;;4.07;;
47860;SDS011;33620;52.340;5.984;2023-06-14T06:39:38;10.45;;;3.90;;
47860;SDS011;33620;52.340;5.984;2023-06-14T06:42:04;6.57;;;3.75;;
47860;SDS011;33620;52.340;5.984;2023-06-14T06:44:30;7.47;;;3.70;;
47860;SDS011;33620;52.340;5.984;2023-06-14T06:46:55;7.00;;;3.67;;
47860;SDS011;33620;52.340;5.984;2023-06-14T06:49:22;11.00;;;3.67;;
47860;SDS011;33620;52.340;5.984;2023-06-14T06:52:00;8.23;;;3.70;;
47860;SDS011;33620;52.340;5.984;2023-06-14T06:54:29;9.65;;;4.03;;
47860;SDS011;33620;52.340;5.984;2023-06-14T06:56:55;7.95;;;3.28;;
47860;SDS011;33620;52.340;5.984;2023-06-14T06:59:20;10.23;;;3.63;;
47860;SDS011;33620;52.340;5.984;2023-06-14T07:01:46;10.70;;;3.72;;
47860;SDS011;33620;52.340;5.984;2023-06-14T07:04:12;7.00;;;3.65;;
47860;SDS011;33620;52.340;5.984;2023-06-14T07:06:37;9.48;;;3.65;;
47860;SDS011;33620;52.340;5.984;2023-06-14T07:09:03;7.07;;;3.60;;
47860;SDS011;33620;52.340;5.984;2023-06-14T07:11:30;6.78;;;2.90;;
47860;SDS011;33620;52.340;5.984;2023-06-14T07:13:55;9.02;;;3.38;;
47860;SDS011;33620;52.340;5.984;2023-06-14T07:16:21;8.82;;;3.00;;
47860;SDS011;33620;52.340;5.984;2023-06-14T07:18:47;6.18;;;2.88;;
47860;SDS011;33620;52.340;5.984;2023-06-14T07:21:12;8.60;;;2.72;;
47860;SDS011;33620;52.340;5.984;2023-06-14T07:23:37;7.03;;;2.80;;
47860;SDS011;33620;52.340;5.984;2023-06-14T07:26:03;10.25;;;2.85;;
47860;SDS011;33620;52.340;5.984;2023-06-14T07:28:28;4.40;;;2.83;;
47860;SDS011;33620;52.340;5.984;2023-06-14T07:30:53;5.35;;;2.35;;
47860;SDS011;33620;52.340;5.984;2023-06-14T07:33:19;6.50;;;2.45;;
47860;SDS011;33620;52.340;5.984;2023-06-14T07:35:45;7.35;;;2.60;;
47860;SDS011;33620;52.340;5.984;2023-06-14T07:38:11;3.78;;;2.30;;
47860;SDS011;33620;52.340;5.984;2023-06-14T07:40:36;5.78;;;3.25;;
47860;SDS011;33620;52.340;5.984;2023-06-14T07:43:01;4.88;;;2.53;;
47860;SDS011;33620;52.340;5.984;2023-06-14T07:45:27;4.60;;;2.75;;
47860;SDS011;33620;52.340;5.984;2023-06-14T07:47:52;5.18;;;2.60;;
47860;SDS011;33620;52.340;5.984;2023-06-14T07:50:18;3.85;;;2.45;;
47860;SDS011;33620;52.340;5.984;2023-06-14T07:52:43;5.25;;;2.47;;
47860;SDS011;33620;52.340;5.984;2023-06-14T07:55:10;3.58;;;2.40;;
47860;SDS011;33620;52.340;5.984;2023-06-14T07:57:35;7.03;;;2.83;;
47860;SDS011;33620;52.340;5.984;2023-06-14T08:00:00;6.60;;;2.88;;
47860;SDS011;33620;52.340;5.984;2023-06-14T08:02:26;5.90;;;2.33;;
47860;SDS011;33620;52.340;5.984;2023-06-14T08:04:51;7.40;;;2.70;;
47860;SDS011;33620;52.340;5.984;2023-06-14T08:07:17;6.43;;;3.10;;
47860;SDS011;33620;52.340;5.984;2023-06-14T08:09:42;6.43;;;2.90;;
47860;SDS011;33620;52.340;5.984;2023-06-14T08:12:08;4.75;;;2.88;;
47860;SDS011;33620;52.340;5.984;2023-06-14T08:14:36;4.95;;;2.72;;
47860;SDS011;33620;52.340;5.984;2023-06-14T08:17:02;5.97;;;2.63;;
47860;SDS011;33620;52.340;5.984;2023-06-14T08:19:27;5.45;;;2.80;;
47860;SDS011;33620;52.340;5.984;2023-06-14T08:21:53;5.78;;;2.03;;
47860;SDS011;33620;52.340;5.984;2023-06-14T08:24:21;5.78;;;2.80;;
47860;SDS011;33620;52.340;5.984;2023-06-14T08:26:49;8.05;;;2.90;;
47860;SDS011;33620;52.340;5.984;2023-06-14T08:29:15;6.40;;;2.95;;
47860;SDS011;33620;52.340;5.984;2023-06-14T08:31:40;3.92;;;2.20;;
47860;SDS011;33620;52.340;5.984;2023-06-14T08:34:05;5.63;;;2.80;;
47860;SDS011;33620;52.340;5.984;2023-06-14T08:36:31;3.00;;;2.55;;
47860;SDS011;33620;52.340;5.984;2023-06-14T08:38:56;4.90;;;2.40;;
47860;SDS011;33620;52.340;5.984;2023-06-14T08:41:22;7.80;;;2.70;;
47860;SDS011;33620;52.340;5.984;2023-06-14T08:43:49;9.98;;;2.92;;
47860;SDS011;33620;52.340;5.984;2023-06-14T08:46:15;7.45;;;2.50;;
47860;SDS011;33620;52.340;5.984;2023-06-14T08:48:45;6.40;;;2.53;;
47860;SDS011;33620;52.340;5.984;2023-06-14T08:51:12;4.25;;;2.40;;
47860;SDS011;33620;52.340;5.984;2023-06-14T08:53:41;8.10;;;2.38;;
47860;SDS011;33620;52.340;5.984;2023-06-14T08:56:07;7.00;;;2.70;;
47860;SDS011;33620;52.340;5.984;2023-06-14T08:58:44;7.63;;;2.30;;
47860;SDS011;33620;52.340;5.984;2023-06-14T09:01:13;8.18;;;2.85;;
47860;SDS011;33620;52.340;5.984;2023-06-14T09:03:40;5.20;;;2.42;;
47860;SDS011;33620;52.340;5.984;2023-06-14T09:06:06;6.30;;;2.42;;
47860;SDS011;33620;52.340;5.984;2023-06-14T09:08:34;14.80;;;4.63;;
47860;SDS011;33620;52.340;5.984;2023-06-14T09:11:00;6.32;;;2.70;;
47860;SDS011;33620;52.340;5.984;2023-06-14T09:13:26;6.35;;;2.60;;
47860;SDS011;33620;52.340;5.984;2023-06-14T09:15:52;6.60;;;2.67;;
47860;SDS011;33620;52.340;5.984;2023-06-14T09:18:17;4.57;;;2.53;;
47860;SDS011;33620;52.340;5.984;2023-06-14T09:20:45;5.30;;;2.70;;
47860;SDS011;33620;52.340;5.984;2023-06-14T09:23:12;8.95;;;2.55;;
47860;SDS011;33620;52.340;5.984;2023-06-14T09:25:41;5.82;;;2.50;;
47860;SDS011;33620;52.340;5.984;2023-06-14T09:28:08;6.38;;;2.42;;
47860;SDS011;33620;52.340;5.984;2023-06-14T09:30:35;4.70;;;2.53;;
47860;SDS011;33620;52.340;5.984;2023-06-14T09:33:02;5.05;;;2.53;;
47860;SDS011;33620;52.340;5.984;2023-06-14T09:35:27;2.70;;;2.17;;
47860;SDS011;33620;52.340;5.984;2023-06-14T09:37:55;9.90;;;2.45;;
47860;SDS011;33620;52.340;5.984;2023-06-14T09:40:21;8.38;;;2.25;;
47860;SDS011;33620;52.340;5.984;2023-06-14T09:42:47;6.28;;;2.63;;
47860;SDS011;33620;52.340;5.984;2023-06-14T09:45:12;4.00;;;2.00;;
47860;SDS011;33620;52.340;5.984;2023-06-14T09:47:38;5.07;;;2.28;;
47860;SDS011;33620;52.340;5.984;2023-06-14T09:50:05;8.27;;;2.40;;
47860;SDS011;33620;52.340;5.984;2023-06-14T09:52:31;6.53;;;2.00;;
47860;SDS011;33620;52.340;5.984;2023-06-14T09:54:57;8.63;;;2.72;;
47860;SDS011;33620;52.340;5.984;2023-06-14T09:57:24;9.25;;;2.40;;
47860;SDS011;33620;52.340;5.984;2023-06-14T09:59:52;4.25;;;2.28;;
47860;SDS011;33620;52.340;5.984;2023-06-14T10:02:22;5.18;;;2.53;;
47860;SDS011;33620;52.340;5.984;2023-06-14T10:05:11;4.82;;;2.25;;
47860;SDS011;33620;52.340;5.984;2023-06-14T10:07:56;6.05;;;2.33;;
47860;SDS011;33620;52.340;5.984;2023-06-14T10:10:28;3.30;;;2.30;;
47860;SDS011;33620;52.340;5.984;2023-06-14T10:12:53;5.55;;;2.30;;
47860;SDS011;33620;52.340;5.984;2023-06-14T10:15:20;6.15;;;2.60;;
47860;SDS011;33620;52.340;5.984;2023-06-14T10:21:16;6.65;;;2.60;;
47860;SDS011;33620;52.340;5.984;2023-06-14T10:23:41;7.13;;;2.40;;
47860;SDS011;33620;52.340;5.984;2023-06-14T10:26:08;3.53;;;2.00;;
47860;SDS011;33620;52.340;5.984;2023-06-14T10:28:44;6.65;;;2.47;;
47860;SDS011;33620;52.340;5.984;2023-06-14T10:31:21;7.18;;;2.28;;
47860;SDS011;33620;52.340;5.984;2023-06-14T10:33:52;9.25;;;2.60;;
47860;SDS011;33620;52.340;5.984;2023-06-14T10:38:46;7.53;;;2.53;;
47860;SDS011;33620;52.340;5.984;2023-06-14T10:41:22;8.70;;;2.33;;
47860;SDS011;33620;52.340;5.984;2023-06-14T10:43:48;8.35;;;2.20;;
47860;SDS011;33620;52.340;5.984;2023-06-14T10:46:17;6.53;;;1.98;;
47860;SDS011;33620;52.340;5.984;2023-06-14T10:48:46;7.40;;;2.22;;
47860;SDS011;33620;52.340;5.984;2023-06-14T10:51:18;8.77;;;2.33;;
47860;SDS011;33620;52.340;5.984;2023-06-14T10:53:49;4.65;;;2.10;;
47860;SDS011;33620;52.340;5.984;2023-06-14T10:58:56;6.30;;;2.58;;
47860;SDS011;33620;52.340;5.984;2023-06-14T11:01:31;7.43;;;2.50;;
47860;SDS011;33620;52.340;5.984;2023-06-14T11:04:09;6.18;;;2.80;;
47860;SDS011;33620;52.340;5.984;2023-06-14T11:06:44;10.70;;;2.50;;
47860;SDS011;33620;52.340;5.984;2023-06-14T11:11:45;4.55;;;2.30;;
47860;SDS011;33620;52.340;5.984;2023-06-14T11:14:11;4.22;;;2.25;;
47860;SDS011;33620;52.340;5.984;2023-06-14T11:16:36;6.22;;;2.33;;
47860;SDS011;33620;52.340;5.984;2023-06-14T11:19:02;6.93;;;2.60;;
47860;SDS011;33620;52.340;5.984;2023-06-14T11:21:33;6.30;;;2.33;;
47860;SDS011;33620;52.340;5.984;2023-06-14T11:23:59;4.07;;;2.30;;
47860;SDS011;33620;52.340;5.984;2023-06-14T11:26:25;6.40;;;2.80;;
47860;SDS011;33620;52.340;5.984;2023-06-14T11:28:54;5.55;;;2.60;;
47860;SDS011;33620;52.340;5.984;2023-06-14T11:31:24;5.97;;;2.47;;
47860;SDS011;33620;52.340;5.984;2023-06-14T11:33:50;4.88;;;2.45;;
47860;SDS011;33620;52.340;5.984;2023-06-14T11:36:16;4.07;;;2.05;;
47860;SDS011;33620;52.340;5.984;2023-06-14T11:38:41;8.38;;;2.28;;
47860;SDS011;33620;52.340;5.984;2023-06-14T11:41:07;7.10;;;2.40;;
47860;SDS011;33620;52.340;5.984;2023-06-14T11:43:32;7.35;;;2.40;;
47860;SDS011;33620;52.340;5.984;2023-06-14T11:45:59;6.88;;;2.40;;
47860;SDS011;33620;52.340;5.984;2023-06-14T11:48:41;8.38;;;2.72;;
47860;SDS011;33620;52.340;5.984;2023-06-14T11:51:07;5.25;;;2.20;;
47860;SDS011;33620;52.340;5.984;2023-06-14T11:53:32;2.70;;;2.03;;
47860;SDS011;33620;52.340;5.984;2023-06-14T11:55:58;7.97;;;2.60;;
47860;SDS011;33620;52.340;5.984;2023-06-14T11:58:25;5.05;;;2.00;;
47860;SDS011;33620;52.340;5.984;2023-06-14T12:00:51;10.23;;;2.50;;
47860;SDS011;33620;52.340;5.984;2023-06-14T12:03:18;4.60;;;2.38;;
47860;SDS011;33620;52.340;5.984;2023-06-14T12:05:48;3.90;;;2.00;;
47860;SDS011;33620;52.340;5.984;2023-06-14T12:08:13;4.97;;;1.95;;
47860;SDS011;33620;52.340;5.984;2023-06-14T12:10:42;7.93;;;2.10;;
47860;SDS011;33620;52.340;5.984;2023-06-14T12:13:10;5.50;;;2.13;;
47860;SDS011;33620;52.340;5.984;2023-06-14T12:15:36;5.75;;;1.90;;
47860;SDS011;33620;52.340;5.984;2023-06-14T12:18:04;5.25;;;2.55;;
47860;SDS011;33620;52.340;5.984;2023-06-14T12:20:31;4.97;;;2.10;;
47860;SDS011;33620;52.340;5.984;2023-06-14T12:23:00;3.85;;;2.20;;
47860;SDS011;33620;52.340;5.984;2023-06-14T12:25:29;5.05;;;2.15;;
47860;SDS011;33620;52.340;5.984;2023-06-14T12:28:03;2.40;;;1.73;;
47860;SDS011;33620;52.340;5.984;2023-06-14T12:30:30;3.67;;;2.20;;
47860;SDS011;33620;52.340;5.984;2023-06-14T12:32:56;5.45;;;2.13;;
47860;SDS011;33620;52.340;5.984;2023-06-14T12:35:21;8.00;;;2.67;;
47860;SDS011;33620;52.340;5.984;2023-06-14T12:37:47;5.72;;;2.60;;
47860;SDS011;33620;52.340;5.984;2023-06-14T12:40:12;5.28;;;2.55;;
47860;SDS011;33620;52.340;5.984;2023-06-14T12:42:38;3.45;;;1.98;;
47860;SDS011;33620;52.340;5.984;2023-06-14T12:45:04;7.53;;;3.50;;
47860;SDS011;33620;52.340;5.984;2023-06-14T12:47:30;6.63;;;2.45;;
47860;SDS011;33620;52.340;5.984;2023-06-14T12:49:55;6.15;;;1.90;;
47860;SDS011;33620;52.340;5.984;2023-06-14T12:52:21;5.25;;;2.33;;
47860;SDS011;33620;52.340;5.984;2023-06-14T12:54:46;7.60;;;2.28;;
47860;SDS011;33620;52.340;5.984;2023-06-14T12:57:11;5.68;;;2.22;;
47860;SDS011;33620;52.340;5.984;2023-06-14T12:59:37;5.07;;;2.10;;
47860;SDS011;33620;52.340;5.984;2023-06-14T13:04:38;5.30;;;2.30;;
47860;SDS011;33620;52.340;5.984;2023-06-14T13:07:03;7.15;;;2.17;;
47860;SDS011;33620;52.340;5.984;2023-06-14T13:09:29;4.43;;;1.80;;
47860;SDS011;33620;52.340;5.984;2023-06-14T13:11:55;7.07;;;2.42;;
47860;SDS011;33620;52.340;5.984;2023-06-14T13:14:20;8.00;;;2.28;;
47860;SDS011;33620;52.340;5.984;2023-06-14T13:16:45;4.75;;;2.10;;
47860;SDS011;33620;52.340;5.984;2023-06-14T13:19:11;7.22;;;2.03;;
47860;SDS011;33620;52.340;5.984;2023-06-14T13:21:36;5.10;;;2.22;;
47860;SDS011;33620;52.340;5.984;2023-06-14T13:24:01;8.70;;;2.28;;
47860;SDS011;33620;52.340;5.984;2023-06-14T13:26:27;3.35;;;2.30;;
47860;SDS011;33620;52.340;5.984;2023-06-14T13:28:52;2.58;;;1.70;;
47860;SDS011;33620;52.340;5.984;2023-06-14T13:31:18;4.10;;;1.75;;
47860;SDS011;33620;52.340;5.984;2023-06-14T13:33:43;2.95;;;2.00;;
47860;SDS011;33620;52.340;5.984;2023-06-14T13:36:08;4.60;;;1.73;;
47860;SDS011;33620;52.340;5.984;2023-06-14T13:38:35;3.17;;;1.60;;
47860;SDS011;33620;52.340;5.984;2023-06-14T13:41:00;5.80;;;2.00;;
47860;SDS011;33620;52.340;5.984;2023-06-14T13:43:26;3.92;;;1.90;;
47860;SDS011;33620;52.340;5.984;2023-06-14T13:45:51;5.38;;;2.10;;
47860;SDS011;33620;52.340;5.984;2023-06-14T13:48:16;4.88;;;1.67;;
47860;SDS011;33620;52.340;5.984;2023-06-14T13:50:42;5.88;;;1.70;;
47860;SDS011;33620;52.340;5.984;2023-06-14T13:53:07;4.43;;;2.00;;
47860;SDS011;33620;52.340;5.984;2023-06-14T13:55:33;4.72;;;1.98;;
47860;SDS011;33620;52.340;5.984;2023-06-14T13:57:58;4.28;;;1.80;;
47860;SDS011;33620;52.340;5.984;2023-06-14T14:00:23;2.70;;;1.75;;
47860;SDS011;33620;52.340;5.984;2023-06-14T14:02:49;3.08;;;1.88;;
47860;SDS011;33620;52.340;5.984;2023-06-14T14:05:15;3.03;;;1.80;;
47860;SDS011;33620;52.340;5.984;2023-06-14T14:07:41;4.30;;;1.98;;
47860;SDS011;33620;52.340;5.984;2023-06-14T14:10:07;3.42;;;1.85;;
47860;SDS011;33620;52.340;5.984;2023-06-14T14:12:33;8.45;;;2.05;;
47860;SDS011;33620;52.340;5.984;2023-06-14T14:14:59;7.90;;;2.00;;
47860;SDS011;33620;52.340;5.984;2023-06-14T14:17:24;5.25;;;2.00;;
47860;SDS011;33620;52.340;5.984;2023-06-14T14:19:50;2.90;;;1.90;;
47860;SDS011;33620;52.340;5.984;2023-06-14T14:22:15;4.43;;;1.80;;
47860;SDS011;33620;52.340;5.984;2023-06-14T14:24:40;7.47;;;2.10;;
47860;SDS011;33620;52.340;5.984;2023-06-14T14:27:06;5.75;;;1.80;;
47860;SDS011;33620;52.340;5.984;2023-06-14T14:29:32;2.92;;;1.90;;
47860;SDS011;33620;52.340;5.984;2023-06-14T14:31:58;3.28;;;1.90;;
47860;SDS011;33620;52.340;5.984;2023-06-14T14:34:24;5.10;;;1.85;;
47860;SDS011;33620;52.340;5.984;2023-06-14T14:36:49;5.88;;;2.08;;
47860;SDS011;33620;52.340;5.984;2023-06-14T14:39:15;4.50;;;2.03;;
47860;SDS011;33620;52.340;5.984;2023-06-14T14:41:40;2.92;;;1.70;;
47860;SDS011;33620;52.340;5.984;2023-06-14T14:44:06;4.53;;;1.90;;
47860;SDS011;33620;52.340;5.984;2023-06-14T14:46:31;2.90;;;1.65;;
47860;SDS011;33620;52.340;5.984;2023-06-14T14:48:58;3.90;;;1.85;;
47860;SDS011;33620;52.340;5.984;2023-06-14T14:51:24;2.70;;;1.60;;
47860;SDS011;33620;52.340;5.984;2023-06-14T14:53:49;2.88;;;1.63;;
47860;SDS011;33620;52.340;5.984;2023-06-14T14:56:14;4.32;;;1.58;;
47860;SDS011;33620;52.340;5.984;2023-06-14T14:58:40;2.45;;;1.50;;
47860;SDS011;33620;52.340;5.984;2023-06-14T15:01:05;4.45;;;1.90;;